sensor_id;sensor_type;location;lat;lon;timestamp;P1;durP1;ratioP1;P2;durP2;ratioP2
18455;SDS011;9357;49.900;8.208;2023-03-11T00:00:48;2.15;;;1.17;;
18455;SDS011;9357;49.900;8.208;2023-03-11T00:02:20;1.08;;;0.80;;
18455;SDS011;9357;49.900;8.208;2023-03-11T00:03:53;1.45;;;0.73;;
18455;SDS011;9357;49.900;8.208;2023-03-11T00:05:27;0.80;;;0.80;;
18455;SDS011;9357;49.900;8.208;2023-03-11T00:07:02;1.73;;;1.25;;
18455;SDS011;9357;49.900;8.208;2023-03-11T00:08:37;2.65;;;0.90;;
18455;SDS011;9357;49.900;8.208;2023-03-11T00:10:12;2.72;;;1.20;;
18455;SDS011;9357;49.900;8.208;2023-03-11T00:11:45;1.60;;;0.70;;
18455;SDS011;9357;49.900;8.208;2023-03-11T00:13:18;2.47;;;0.80;;
18455;SDS011;9357;49.900;8.208;2023-03-11T00:14:50;1.10;;;1.00;;
18455;SDS011;9357;49.900;8.208;2023-03-11T00:16:22;0.95;;;0.80;;
18455;SDS011;9357;49.900;8.208;2023-03-11T00:17:55;1.05;;;0.75;;
18455;SDS011;9357;49.900;8.208;2023-03-11T00:19:28;1.52;;;0.80;;
18455;SDS011;9357;49.900;8.208;2023-03-11T00:21:01;1.40;;;0.70;;
18455;SDS011;9357;49.900;8.208;2023-03-11T00:22:35;3.33;;;1.08;;
18455;SDS011;9357;49.900;8.208;2023-03-11T00:24:07;1.67;;;0.73;;
18455;SDS011;9357;49.900;8.208;2023-03-11T00:25:41;2.28;;;0.82;;
18455;SDS011;9357;49.900;8.208;2023-03-11T00:27:15;2.10;;;0.90;;
18455;SDS011;9357;49.900;8.208;2023-03-11T00:28:47;1.67;;;0.90;;
18455;SDS011;9357;49.900;8.208;2023-03-11T00:30:21;1.92;;;0.85;;
18455;SDS011;9357;49.900;8.208;2023-03-11T00:31:54;1.35;;;0.90;;
18455;SDS011;9357;49.900;8.208;2023-03-11T00:33:27;1.98;;;0.82;;
18455;SDS011;9357;49.900;8.208;2023-03-11T00:35:00;2.30;;;1.15;;
18455;SDS011;9357;49.900;8.208;2023-03-11T00:36:32;2.47;;;0.90;;
18455;SDS011;9357;49.900;8.208;2023-03-11T00:38:07;2.00;;;0.90;;
18455;SDS011;9357;49.900;8.208;2023-03-11T00:39:42;1.52;;;1.00;;
18455;SDS011;9357;49.900;8.208;2023-03-11T00:41:15;1.38;;;0.70;;
18455;SDS011;9357;49.900;8.208;2023-03-11T00:42:48;3.70;;;1.20;;
18455;SDS011;9357;49.900;8.208;2023-03-11T00:44:20;3.72;;;1.02;;
18455;SDS011;9357;49.900;8.208;2023-03-11T00:45:53;3.05;;;1.05;;
18455;SDS011;9357;49.900;8.208;2023-03-11T00:47:25;1.10;;;0.80;;
18455;SDS011;9357;49.900;8.208;2023-03-11T00:48:57;2.95;;;0.90;;
18455;SDS011;9357;49.900;8.208;2023-03-11T00:50:31;2.95;;;0.70;;
18455;SDS011;9357;49.900;8.208;2023-03-11T00:52:05;3.50;;;0.77;;
18455;SDS011;9357;49.900;8.208;2023-03-11T00:53:38;2.28;;;1.35;;
18455;SDS011;9357;49.900;8.208;2023-03-11T00:55:11;2.92;;;0.70;;
18455;SDS011;9357;49.900;8.208;2023-03-11T00:56:46;4.65;;;1.13;;
18455;SDS011;9357;49.900;8.208;2023-03-11T00:58:19;2.80;;;1.05;;
18455;SDS011;9357;49.900;8.208;2023-03-11T00:59:53;2.22;;;1.00;;
18455;SDS011;9357;49.900;8.208;2023-03-11T01:01:24;1.63;;;0.80;;
18455;SDS011;9357;49.900;8.208;2023-03-11T01:02:57;2.90;;;1.10;;
18455;SDS011;9357;49.900;8.208;2023-03-11T01:04:31;4.68;;;1.17;;
18455;SDS011;9357;49.900;8.208;2023-03-11T01:06:04;5.43;;;1.08;;
18455;SDS011;9357;49.900;8.208;2023-03-11T01:07:37;1.60;;;0.95;;
18455;SDS011;9357;49.900;8.208;2023-03-11T01:09:11;1.45;;;0.80;;
18455;SDS011;9357;49.900;8.208;2023-03-11T01:10:44;4.07;;;1.27;;
18455;SDS011;9357;49.900;8.208;2023-03-11T01:12:16;4.38;;;1.10;;
18455;SDS011;9357;49.900;8.208;2023-03-11T01:13:49;3.13;;;0.90;;
18455;SDS011;9357;49.900;8.208;2023-03-11T01:15:22;3.10;;;1.02;;
18455;SDS011;9357;49.900;8.208;2023-03-11T01:16:57;0.93;;;0.90;;
18455;SDS011;9357;49.900;8.208;2023-03-11T01:18:30;2.92;;;1.10;;
18455;SDS011;9357;49.900;8.208;2023-03-11T01:20:02;3.85;;;1.10;;
18455;SDS011;9357;49.900;8.208;2023-03-11T01:21:38;2.92;;;1.10;;
18455;SDS011;9357;49.900;8.208;2023-03-11T01:23:11;1.35;;;0.90;;
18455;SDS011;9357;49.900;8.208;2023-03-11T01:24:46;3.05;;;1.00;;
18455;SDS011;9357;49.900;8.208;2023-03-11T01:26:18;2.88;;;1.40;;
18455;SDS011;9357;49.900;8.208;2023-03-11T01:27:51;1.92;;;1.00;;
18455;SDS011;9357;49.900;8.208;2023-03-11T01:29:24;2.03;;;1.00;;
18455;SDS011;9357;49.900;8.208;2023-03-11T01:30:57;1.88;;;1.20;;
18455;SDS011;9357;49.900;8.208;2023-03-11T01:32:30;2.30;;;1.17;;
18455;SDS011;9357;49.900;8.208;2023-03-11T01:34:01;4.30;;;1.52;;
18455;SDS011;9357;49.900;8.208;2023-03-11T01:35:34;5.18;;;1.38;;
18455;SDS011;9357;49.900;8.208;2023-03-11T01:37:07;3.42;;;1.08;;
18455;SDS011;9357;49.900;8.208;2023-03-11T01:38:40;4.03;;;1.10;;
18455;SDS011;9357;49.900;8.208;2023-03-11T01:40:16;1.95;;;1.20;;
18455;SDS011;9357;49.900;8.208;2023-03-11T01:41:51;3.92;;;1.27;;
18455;SDS011;9357;49.900;8.208;2023-03-11T01:43:37;2.97;;;1.02;;
18455;SDS011;9357;49.900;8.208;2023-03-11T01:45:23;4.85;;;1.20;;
18455;SDS011;9357;49.900;8.208;2023-03-11T01:47:32;3.83;;;1.42;;
18455;SDS011;9357;49.900;8.208;2023-03-11T01:49:08;1.60;;;1.10;;
18455;SDS011;9357;49.900;8.208;2023-03-11T01:50:43;3.08;;;0.82;;
18455;SDS011;9357;49.900;8.208;2023-03-11T01:52:20;6.10;;;1.20;;
18455;SDS011;9357;49.900;8.208;2023-03-11T01:53:52;3.35;;;1.20;;
18455;SDS011;9357;49.900;8.208;2023-03-11T01:55:27;3.88;;;1.40;;
18455;SDS011;9357;49.900;8.208;2023-03-11T01:57:03;3.28;;;1.20;;
18455;SDS011;9357;49.900;8.208;2023-03-11T01:58:38;1.75;;;1.00;;
18455;SDS011;9357;49.900;8.208;2023-03-11T02:00:15;4.80;;;1.40;;
18455;SDS011;9357;49.900;8.208;2023-03-11T02:01:48;2.53;;;1.17;;
18455;SDS011;9357;49.900;8.208;2023-03-11T02:03:27;3.60;;;1.30;;
18455;SDS011;9357;49.900;8.208;2023-03-11T02:05:02;3.53;;;1.23;;
18455;SDS011;9357;49.900;8.208;2023-03-11T02:06:35;5.72;;;1.48;;
18455;SDS011;9357;49.900;8.208;2023-03-11T02:08:09;6.38;;;1.38;;
18455;SDS011;9357;49.900;8.208;2023-03-11T02:09:41;3.30;;;1.13;;
18455;SDS011;9357;49.900;8.208;2023-03-11T02:11:15;4.25;;;1.08;;
18455;SDS011;9357;49.900;8.208;2023-03-11T02:12:50;4.07;;;1.30;;
18455;SDS011;9357;49.900;8.208;2023-03-11T02:14:24;2.33;;;1.25;;
18455;SDS011;9357;49.900;8.208;2023-03-11T02:15:58;2.97;;;1.17;;
18455;SDS011;9357;49.900;8.208;2023-03-11T02:17:31;2.47;;;1.00;;
18455;SDS011;9357;49.900;8.208;2023-03-11T02:19:07;2.58;;;1.30;;
18455;SDS011;9357;49.900;8.208;2023-03-11T02:20:48;4.63;;;1.40;;
18455;SDS011;9357;49.900;8.208;2023-03-11T02:22:24;7.93;;;1.55;;
18455;SDS011;9357;49.900;8.208;2023-03-11T02:24:01;2.42;;;1.50;;
18455;SDS011;9357;49.900;8.208;2023-03-11T02:25:39;2.92;;;1.20;;
18455;SDS011;9357;49.900;8.208;2023-03-11T02:27:17;3.33;;;1.48;;
18455;SDS011;9357;49.900;8.208;2023-03-11T02:28:52;5.20;;;1.60;;
18455;SDS011;9357;49.900;8.208;2023-03-11T02:30:25;3.45;;;1.42;;
18455;SDS011;9357;49.900;8.208;2023-03-11T02:31:59;4.60;;;1.30;;
18455;SDS011;9357;49.900;8.208;2023-03-11T02:33:35;3.50;;;1.30;;
18455;SDS011;9357;49.900;8.208;2023-03-11T02:35:08;4.43;;;1.55;;
18455;SDS011;9357;49.900;8.208;2023-03-11T02:36:41;3.22;;;1.23;;
18455;SDS011;9357;49.900;8.208;2023-03-11T02:38:14;4.43;;;1.23;;
18455;SDS011;9357;49.900;8.208;2023-03-11T02:39:47;5.55;;;1.60;;
18455;SDS011;9357;49.900;8.208;2023-03-11T02:41:21;3.78;;;1.33;;
18455;SDS011;9357;49.900;8.208;2023-03-11T02:42:55;4.45;;;1.50;;
18455;SDS011;9357;49.900;8.208;2023-03-11T02:44:30;7.45;;;1.60;;
18455;SDS011;9357;49.900;8.208;2023-03-11T02:46:03;4.72;;;1.58;;
18455;SDS011;9357;49.900;8.208;2023-03-11T02:47:40;5.00;;;1.50;;
18455;SDS011;9357;49.900;8.208;2023-03-11T02:49:13;5.93;;;1.50;;
18455;SDS011;9357;49.900;8.208;2023-03-11T02:50:46;4.55;;;1.30;;
18455;SDS011;9357;49.900;8.208;2023-03-11T02:52:19;4.07;;;1.17;;
18455;SDS011;9357;49.900;8.208;2023-03-11T02:53:53;3.10;;;1.30;;
18455;SDS011;9357;49.900;8.208;2023-03-11T02:55:30;4.95;;;1.20;;
18455;SDS011;9357;49.900;8.208;2023-03-11T02:57:03;4.95;;;1.50;;
18455;SDS011;9357;49.900;8.208;2023-03-11T02:58:37;4.90;;;1.35;;
18455;SDS011;9357;49.900;8.208;2023-03-11T03:00:09;5.20;;;1.30;;
18455;SDS011;9357;49.900;8.208;2023-03-11T03:01:45;5.30;;;1.60;;
18455;SDS011;9357;49.900;8.208;2023-03-11T03:03:17;5.50;;;1.88;;
18455;SDS011;9357;49.900;8.208;2023-03-11T03:04:50;4.13;;;1.10;;
18455;SDS011;9357;49.900;8.208;2023-03-11T03:06:23;5.35;;;1.20;;
18455;SDS011;9357;49.900;8.208;2023-03-11T03:07:56;4.82;;;1.52;;
18455;SDS011;9357;49.900;8.208;2023-03-11T03:09:28;6.43;;;1.55;;
18455;SDS011;9357;49.900;8.208;2023-03-11T03:11:00;5.55;;;1.33;;
18455;SDS011;9357;49.900;8.208;2023-03-11T03:12:33;4.03;;;1.27;;
18455;SDS011;9357;49.900;8.208;2023-03-11T03:14:06;3.40;;;1.30;;
18455;SDS011;9357;49.900;8.208;2023-03-11T03:15:39;4.60;;;1.30;;
18455;SDS011;9357;49.900;8.208;2023-03-11T03:17:12;3.72;;;1.60;;
18455;SDS011;9357;49.900;8.208;2023-03-11T03:18:44;2.28;;;1.10;;
18455;SDS011;9357;49.900;8.208;2023-03-11T03:20:16;5.50;;;1.63;;
18455;SDS011;9357;49.900;8.208;2023-03-11T03:21:52;6.03;;;1.50;;
18455;SDS011;9357;49.900;8.208;2023-03-11T03:26:18;4.40;;;1.42;;
18455;SDS011;9357;49.900;8.208;2023-03-11T03:27:51;3.35;;;1.42;;
18455;SDS011;9357;49.900;8.208;2023-03-11T03:29:25;7.20;;;1.65;;
18455;SDS011;9357;49.900;8.208;2023-03-11T03:31:02;6.15;;;1.50;;
18455;SDS011;9357;49.900;8.208;2023-03-11T03:32:36;5.50;;;1.58;;
18455;SDS011;9357;49.900;8.208;2023-03-11T03:34:09;3.60;;;1.20;;
18455;SDS011;9357;49.900;8.208;2023-03-11T03:35:42;4.55;;;1.60;;
18455;SDS011;9357;49.900;8.208;2023-03-11T03:37:16;4.32;;;1.20;;
18455;SDS011;9357;49.900;8.208;2023-03-11T03:38:51;3.58;;;1.35;;
18455;SDS011;9357;49.900;8.208;2023-03-11T03:40:25;5.60;;;1.60;;
18455;SDS011;9357;49.900;8.208;2023-03-11T03:41:58;2.90;;;1.40;;
18455;SDS011;9357;49.900;8.208;2023-03-11T03:43:31;4.20;;;1.27;;
18455;SDS011;9357;49.900;8.208;2023-03-11T03:45:06;7.80;;;1.90;;
18455;SDS011;9357;49.900;8.208;2023-03-11T03:46:39;5.00;;;1.70;;
18455;SDS011;9357;49.900;8.208;2023-03-11T03:48:12;6.93;;;1.85;;
18455;SDS011;9357;49.900;8.208;2023-03-11T03:49:45;4.53;;;1.63;;
18455;SDS011;9357;49.900;8.208;2023-03-11T03:51:17;3.80;;;1.70;;
18455;SDS011;9357;49.900;8.208;2023-03-11T03:52:50;5.05;;;1.40;;
18455;SDS011;9357;49.900;8.208;2023-03-11T03:54:23;6.97;;;1.60;;
18455;SDS011;9357;49.900;8.208;2023-03-11T03:55:56;6.47;;;1.48;;
18455;SDS011;9357;49.900;8.208;2023-03-11T03:57:28;6.20;;;1.52;;
18455;SDS011;9357;49.900;8.208;2023-03-11T03:59:00;5.07;;;1.58;;
18455;SDS011;9357;49.900;8.208;2023-03-11T04:00:34;4.00;;;1.40;;
18455;SDS011;9357;49.900;8.208;2023-03-11T04:02:07;7.63;;;1.90;;
18455;SDS011;9357;49.900;8.208;2023-03-11T04:03:39;4.07;;;1.40;;
18455;SDS011;9357;49.900;8.208;2023-03-11T04:05:12;8.75;;;2.63;;
18455;SDS011;9357;49.900;8.208;2023-03-11T04:06:44;4.47;;;1.55;;
18455;SDS011;9357;49.900;8.208;2023-03-11T04:08:17;6.22;;;1.40;;
18455;SDS011;9357;49.900;8.208;2023-03-11T04:09:50;4.10;;;1.73;;
18455;SDS011;9357;49.900;8.208;2023-03-11T04:11:23;4.72;;;1.90;;
18455;SDS011;9357;49.900;8.208;2023-03-11T04:12:56;5.75;;;1.52;;
18455;SDS011;9357;49.900;8.208;2023-03-11T04:14:28;10.32;;;1.85;;
18455;SDS011;9357;49.900;8.208;2023-03-11T04:16:03;7.40;;;1.70;;
18455;SDS011;9357;49.900;8.208;2023-03-11T04:17:36;5.20;;;1.98;;
18455;SDS011;9357;49.900;8.208;2023-03-11T04:19:09;4.10;;;1.67;;
18455;SDS011;9357;49.900;8.208;2023-03-11T04:20:42;3.85;;;1.50;;
18455;SDS011;9357;49.900;8.208;2023-03-11T04:22:14;5.75;;;1.70;;
18455;SDS011;9357;49.900;8.208;2023-03-11T04:23:47;6.38;;;1.50;;
18455;SDS011;9357;49.900;8.208;2023-03-11T04:25:20;9.35;;;1.75;;
18455;SDS011;9357;49.900;8.208;2023-03-11T04:26:53;6.40;;;1.90;;
18455;SDS011;9357;49.900;8.208;2023-03-11T04:28:25;4.38;;;2.00;;
18455;SDS011;9357;49.900;8.208;2023-03-11T04:29:58;4.25;;;1.30;;
18455;SDS011;9357;49.900;8.208;2023-03-11T04:31:32;4.63;;;1.90;;
18455;SDS011;9357;49.900;8.208;2023-03-11T04:33:05;7.95;;;1.50;;
18455;SDS011;9357;49.900;8.208;2023-03-11T04:34:38;3.03;;;1.48;;
18455;SDS011;9357;49.900;8.208;2023-03-11T04:36:11;3.38;;;1.73;;
18455;SDS011;9357;49.900;8.208;2023-03-11T04:37:44;6.32;;;1.30;;
18455;SDS011;9357;49.900;8.208;2023-03-11T04:39:16;2.78;;;1.30;;
18455;SDS011;9357;49.900;8.208;2023-03-11T04:40:48;5.53;;;1.70;;
18455;SDS011;9357;49.900;8.208;2023-03-11T04:42:21;5.82;;;1.48;;
18455;SDS011;9357;49.900;8.208;2023-03-11T04:43:54;5.50;;;1.40;;
18455;SDS011;9357;49.900;8.208;2023-03-11T04:45:26;7.63;;;1.70;;
18455;SDS011;9357;49.900;8.208;2023-03-11T04:47:00;5.25;;;1.50;;
18455;SDS011;9357;49.900;8.208;2023-03-11T04:48:33;6.80;;;2.08;;
18455;SDS011;9357;49.900;8.208;2023-03-11T04:50:05;4.57;;;1.60;;
18455;SDS011;9357;49.900;8.208;2023-03-11T04:51:38;9.05;;;1.50;;
18455;SDS011;9357;49.900;8.208;2023-03-11T04:53:11;5.80;;;1.70;;
18455;SDS011;9357;49.900;8.208;2023-03-11T04:54:43;5.53;;;1.55;;
18455;SDS011;9357;49.900;8.208;2023-03-11T04:56:16;6.95;;;1.85;;
18455;SDS011;9357;49.900;8.208;2023-03-11T04:57:48;5.97;;;1.40;;
18455;SDS011;9357;49.900;8.208;2023-03-11T04:59:21;4.78;;;1.52;;
18455;SDS011;9357;49.900;8.208;2023-03-11T05:00:54;9.38;;;1.75;;
18455;SDS011;9357;49.900;8.208;2023-03-11T05:02:28;6.63;;;1.95;;
18455;SDS011;9357;49.900;8.208;2023-03-11T05:04:00;6.82;;;1.65;;
18455;SDS011;9357;49.900;8.208;2023-03-11T05:05:33;4.72;;;1.73;;
18455;SDS011;9357;49.900;8.208;2023-03-11T05:07:06;8.23;;;1.40;;
18455;SDS011;9357;49.900;8.208;2023-03-11T05:08:39;3.05;;;1.80;;
18455;SDS011;9357;49.900;8.208;2023-03-11T05:10:12;4.40;;;1.80;;
18455;SDS011;9357;49.900;8.208;2023-03-11T05:11:52;4.43;;;1.58;;
18455;SDS011;9357;49.900;8.208;2023-03-11T05:13:24;8.20;;;2.25;;
18455;SDS011;9357;49.900;8.208;2023-03-11T05:14:56;5.88;;;1.70;;
18455;SDS011;9357;49.900;8.208;2023-03-11T05:16:29;5.80;;;1.90;;
18455;SDS011;9357;49.900;8.208;2023-03-11T05:18:03;4.15;;;1.48;;
18455;SDS011;9357;49.900;8.208;2023-03-11T05:19:35;5.35;;;1.52;;
18455;SDS011;9357;49.900;8.208;2023-03-11T05:21:08;2.97;;;1.98;;
18455;SDS011;9357;49.900;8.208;2023-03-11T05:22:39;4.47;;;1.35;;
18455;SDS011;9357;49.900;8.208;2023-03-11T05:24:12;3.47;;;1.63;;
18455;SDS011;9357;49.900;8.208;2023-03-11T05:25:45;6.60;;;1.35;;
18455;SDS011;9357;49.900;8.208;2023-03-11T05:27:18;4.25;;;1.65;;
18455;SDS011;9357;49.900;8.208;2023-03-11T05:28:51;6.28;;;1.75;;
18455;SDS011;9357;49.900;8.208;2023-03-11T05:30:24;5.30;;;1.40;;
18455;SDS011;9357;49.900;8.208;2023-03-11T05:31:56;5.03;;;1.90;;
18455;SDS011;9357;49.900;8.208;2023-03-11T05:33:30;4.40;;;1.63;;
18455;SDS011;9357;49.900;8.208;2023-03-11T05:35:06;6.38;;;1.65;;
18455;SDS011;9357;49.900;8.208;2023-03-11T05:36:39;6.25;;;1.77;;
18455;SDS011;9357;49.900;8.208;2023-03-11T05:38:12;4.32;;;1.63;;
18455;SDS011;9357;49.900;8.208;2023-03-11T05:39:44;6.82;;;1.98;;
18455;SDS011;9357;49.900;8.208;2023-03-11T05:41:17;6.97;;;1.77;;
18455;SDS011;9357;49.900;8.208;2023-03-11T05:42:50;6.63;;;1.88;;
18455;SDS011;9357;49.900;8.208;2023-03-11T05:44:23;7.18;;;2.03;;
18455;SDS011;9357;49.900;8.208;2023-03-11T05:45:55;4.03;;;1.58;;
18455;SDS011;9357;49.900;8.208;2023-03-11T05:47:28;4.93;;;1.65;;
18455;SDS011;9357;49.900;8.208;2023-03-11T05:49:02;6.40;;;1.80;;
18455;SDS011;9357;49.900;8.208;2023-03-11T05:50:35;7.97;;;1.70;;
18455;SDS011;9357;49.900;8.208;2023-03-11T05:52:09;5.88;;;1.60;;
18455;SDS011;9357;49.900;8.208;2023-03-11T05:53:42;11.40;;;1.98;;
18455;SDS011;9357;49.900;8.208;2023-03-11T05:55:18;5.10;;;1.35;;
18455;SDS011;9357;49.900;8.208;2023-03-11T05:56:50;5.40;;;1.73;;
18455;SDS011;9357;49.900;8.208;2023-03-11T05:58:23;3.70;;;1.60;;
18455;SDS011;9357;49.900;8.208;2023-03-11T05:59:57;7.90;;;1.70;;
18455;SDS011;9357;49.900;8.208;2023-03-11T06:01:29;5.32;;;1.73;;
18455;SDS011;9357;49.900;8.208;2023-03-11T06:03:01;4.82;;;1.90;;
18455;SDS011;9357;49.900;8.208;2023-03-11T06:04:35;6.22;;;1.88;;
18455;SDS011;9357;49.900;8.208;2023-03-11T06:06:09;6.45;;;1.80;;
18455;SDS011;9357;49.900;8.208;2023-03-11T06:07:43;5.35;;;1.77;;
18455;SDS011;9357;49.900;8.208;2023-03-11T06:09:16;6.13;;;2.10;;
18455;SDS011;9357;49.900;8.208;2023-03-11T06:10:48;4.40;;;1.55;;
18455;SDS011;9357;49.900;8.208;2023-03-11T06:12:21;3.97;;;1.75;;
18455;SDS011;9357;49.900;8.208;2023-03-11T06:13:54;5.63;;;1.50;;
18455;SDS011;9357;49.900;8.208;2023-03-11T06:15:28;6.47;;;1.67;;
18455;SDS011;9357;49.900;8.208;2023-03-11T06:17:01;3.90;;;1.70;;
18455;SDS011;9357;49.900;8.208;2023-03-11T06:18:34;6.78;;;2.00;;
18455;SDS011;9357;49.900;8.208;2023-03-11T06:20:08;5.63;;;1.60;;
18455;SDS011;9357;49.900;8.208;2023-03-11T06:21:42;5.10;;;1.88;;
18455;SDS011;9357;49.900;8.208;2023-03-11T06:23:15;6.93;;;1.95;;
18455;SDS011;9357;49.900;8.208;2023-03-11T06:24:47;6.82;;;1.90;;
18455;SDS011;9357;49.900;8.208;2023-03-11T06:26:20;5.95;;;2.00;;
18455;SDS011;9357;49.900;8.208;2023-03-11T06:27:53;7.25;;;1.85;;
18455;SDS011;9357;49.900;8.208;2023-03-11T06:29:26;6.22;;;1.92;;
18455;SDS011;9357;49.900;8.208;2023-03-11T06:31:05;4.30;;;1.52;;
18455;SDS011;9357;49.900;8.208;2023-03-11T06:32:39;8.43;;;2.00;;
18455;SDS011;9357;49.900;8.208;2023-03-11T06:34:14;6.85;;;2.45;;
18455;SDS011;9357;49.900;8.208;2023-03-11T06:35:55;4.65;;;1.75;;
18455;SDS011;9357;49.900;8.208;2023-03-11T06:37:29;5.20;;;1.60;;
18455;SDS011;9357;49.900;8.208;2023-03-11T06:39:02;11.55;;;2.78;;
18455;SDS011;9357;49.900;8.208;2023-03-11T06:40:35;9.18;;;1.70;;
18455;SDS011;9357;49.900;8.208;2023-03-11T06:42:09;7.25;;;2.22;;
18455;SDS011;9357;49.900;8.208;2023-03-11T06:43:42;6.35;;;1.80;;
18455;SDS011;9357;49.900;8.208;2023-03-11T06:45:14;6.22;;;2.33;;
18455;SDS011;9357;49.900;8.208;2023-03-11T06:46:50;4.30;;;1.80;;
18455;SDS011;9357;49.900;8.208;2023-03-11T06:48:23;3.80;;;1.90;;
18455;SDS011;9357;49.900;8.208;2023-03-11T06:49:56;7.45;;;2.03;;
18455;SDS011;9357;49.900;8.208;2023-03-11T06:51:30;6.03;;;1.90;;
18455;SDS011;9357;49.900;8.208;2023-03-11T06:53:03;4.10;;;1.80;;
18455;SDS011;9357;49.900;8.208;2023-03-11T06:54:36;6.55;;;1.88;;
18455;SDS011;9357;49.900;8.208;2023-03-11T06:56:10;7.38;;;2.22;;
18455;SDS011;9357;49.900;8.208;2023-03-11T06:57:44;8.98;;;1.83;;
18455;SDS011;9357;49.900;8.208;2023-03-11T06:59:17;8.93;;;2.10;;
18455;SDS011;9357;49.900;8.208;2023-03-11T07:00:49;5.88;;;1.60;;
18455;SDS011;9357;49.900;8.208;2023-03-11T07:02:23;6.50;;;1.60;;
18455;SDS011;9357;49.900;8.208;2023-03-11T07:03:56;7.13;;;1.75;;
18455;SDS011;9357;49.900;8.208;2023-03-11T07:05:28;5.70;;;1.77;;
18455;SDS011;9357;49.900;8.208;2023-03-11T07:07:02;8.27;;;1.58;;
18455;SDS011;9357;49.900;8.208;2023-03-11T07:08:35;7.38;;;1.85;;
18455;SDS011;9357;49.900;8.208;2023-03-11T07:10:09;3.53;;;1.50;;
18455;SDS011;9357;49.900;8.208;2023-03-11T07:11:42;6.32;;;2.00;;
18455;SDS011;9357;49.900;8.208;2023-03-11T07:13:15;7.60;;;2.33;;
18455;SDS011;9357;49.900;8.208;2023-03-11T07:14:48;6.82;;;1.67;;
18455;SDS011;9357;49.900;8.208;2023-03-11T07:16:21;10.05;;;1.92;;
18455;SDS011;9357;49.900;8.208;2023-03-11T07:17:55;5.90;;;1.75;;
18455;SDS011;9357;49.900;8.208;2023-03-11T07:19:28;6.88;;;2.10;;
18455;SDS011;9357;49.900;8.208;2023-03-11T07:21:01;8.55;;;2.15;;
18455;SDS011;9357;49.900;8.208;2023-03-11T07:22:36;4.85;;;1.60;;
18455;SDS011;9357;49.900;8.208;2023-03-11T07:24:10;7.20;;;2.30;;
18455;SDS011;9357;49.900;8.208;2023-03-11T07:25:44;6.18;;;2.15;;
18455;SDS011;9357;49.900;8.208;2023-03-11T07:27:17;7.25;;;2.10;;
18455;SDS011;9357;49.900;8.208;2023-03-11T07:28:50;7.78;;;2.15;;
18455;SDS011;9357;49.900;8.208;2023-03-11T07:30:23;4.90;;;2.10;;
18455;SDS011;9357;49.900;8.208;2023-03-11T07:31:55;7.13;;;2.35;;
18455;SDS011;9357;49.900;8.208;2023-03-11T07:33:28;3.83;;;1.60;;
18455;SDS011;9357;49.900;8.208;2023-03-11T07:35:04;4.60;;;1.60;;
18455;SDS011;9357;49.900;8.208;2023-03-11T07:36:38;8.48;;;1.88;;
18455;SDS011;9357;49.900;8.208;2023-03-11T07:38:13;6.13;;;1.98;;
18455;SDS011;9357;49.900;8.208;2023-03-11T07:39:46;4.63;;;1.67;;
18455;SDS011;9357;49.900;8.208;2023-03-11T07:41:19;5.75;;;2.20;;
18455;SDS011;9357;49.900;8.208;2023-03-11T07:42:52;4.90;;;1.58;;
18455;SDS011;9357;49.900;8.208;2023-03-11T07:44:24;5.00;;;1.63;;
18455;SDS011;9357;49.900;8.208;2023-03-11T07:46:01;6.40;;;1.77;;
18455;SDS011;9357;49.900;8.208;2023-03-11T07:47:37;7.45;;;1.95;;
18455;SDS011;9357;49.900;8.208;2023-03-11T07:49:10;7.97;;;1.80;;
18455;SDS011;9357;49.900;8.208;2023-03-11T07:50:42;3.38;;;1.55;;
18455;SDS011;9357;49.900;8.208;2023-03-11T07:52:15;4.93;;;1.83;;
18455;SDS011;9357;49.900;8.208;2023-03-11T07:53:51;8.50;;;1.83;;
18455;SDS011;9357;49.900;8.208;2023-03-11T07:55:24;6.38;;;1.92;;
18455;SDS011;9357;49.900;8.208;2023-03-11T07:56:57;4.38;;;1.52;;
18455;SDS011;9357;49.900;8.208;2023-03-11T07:58:30;6.63;;;1.98;;
18455;SDS011;9357;49.900;8.208;2023-03-11T08:00:03;3.72;;;1.80;;
18455;SDS011;9357;49.900;8.208;2023-03-11T08:01:36;5.65;;;1.88;;
18455;SDS011;9357;49.900;8.208;2023-03-11T08:03:11;3.60;;;1.60;;
18455;SDS011;9357;49.900;8.208;2023-03-11T08:04:44;6.20;;;2.00;;
18455;SDS011;9357;49.900;8.208;2023-03-11T08:06:17;3.45;;;1.60;;
18455;SDS011;9357;49.900;8.208;2023-03-11T08:07:51;6.22;;;1.70;;
18455;SDS011;9357;49.900;8.208;2023-03-11T08:09:25;4.22;;;1.83;;
18455;SDS011;9357;49.900;8.208;2023-03-11T08:11:01;3.67;;;1.80;;
18455;SDS011;9357;49.900;8.208;2023-03-11T08:12:34;5.00;;;1.80;;
18455;SDS011;9357;49.900;8.208;2023-03-11T08:14:06;4.72;;;1.88;;
18455;SDS011;9357;49.900;8.208;2023-03-11T08:15:39;5.43;;;1.60;;
18455;SDS011;9357;49.900;8.208;2023-03-11T08:17:12;5.78;;;1.70;;
18455;SDS011;9357;49.900;8.208;2023-03-11T08:18:45;3.50;;;1.50;;
18455;SDS011;9357;49.900;8.208;2023-03-11T08:20:18;4.53;;;1.67;;
18455;SDS011;9357;49.900;8.208;2023-03-11T08:21:51;5.88;;;1.65;;
18455;SDS011;9357;49.900;8.208;2023-03-11T08:23:24;3.65;;;1.50;;
18455;SDS011;9357;49.900;8.208;2023-03-11T08:24:58;7.20;;;1.70;;
18455;SDS011;9357;49.900;8.208;2023-03-11T08:26:31;4.13;;;1.55;;
18455;SDS011;9357;49.900;8.208;2023-03-11T08:28:04;3.55;;;1.63;;
18455;SDS011;9357;49.900;8.208;2023-03-11T08:29:38;4.25;;;1.52;;
18455;SDS011;9357;49.900;8.208;2023-03-11T08:31:11;4.60;;;1.63;;
18455;SDS011;9357;49.900;8.208;2023-03-11T08:32:44;4.88;;;1.80;;
18455;SDS011;9357;49.900;8.208;2023-03-11T08:34:17;4.43;;;1.60;;
18455;SDS011;9357;49.900;8.208;2023-03-11T08:35:51;4.80;;;1.73;;
18455;SDS011;9357;49.900;8.208;2023-03-11T08:37:24;6.93;;;1.77;;
18455;SDS011;9357;49.900;8.208;2023-03-11T08:38:57;3.53;;;1.27;;
18455;SDS011;9357;49.900;8.208;2023-03-11T08:40:31;5.03;;;1.43;;
18455;SDS011;9357;49.900;8.208;2023-03-11T08:42:04;6.20;;;1.55;;
18455;SDS011;9357;49.900;8.208;2023-03-11T08:43:37;4.60;;;1.75;;
18455;SDS011;9357;49.900;8.208;2023-03-11T08:45:10;4.73;;;2.00;;
18455;SDS011;9357;49.900;8.208;2023-03-11T08:46:43;5.05;;;1.50;;
18455;SDS011;9357;49.900;8.208;2023-03-11T08:48:16;5.63;;;1.75;;
18455;SDS011;9357;49.900;8.208;2023-03-11T08:49:48;4.57;;;1.73;;
18455;SDS011;9357;49.900;8.208;2023-03-11T08:51:21;5.33;;;1.87;;
18455;SDS011;9357;49.900;8.208;2023-03-11T08:52:55;5.87;;;1.80;;
18455;SDS011;9357;49.900;8.208;2023-03-11T08:54:30;5.33;;;1.73;;
18455;SDS011;9357;49.900;8.208;2023-03-11T08:56:05;4.07;;;1.50;;
18455;SDS011;9357;49.900;8.208;2023-03-11T08:57:38;4.27;;;1.50;;
18455;SDS011;9357;49.900;8.208;2023-03-11T08:59:12;5.82;;;1.52;;
18455;SDS011;9357;49.900;8.208;2023-03-11T09:00:45;4.37;;;1.50;;
18455;SDS011;9357;49.900;8.208;2023-03-11T09:02:18;6.17;;;1.80;;
18455;SDS011;9357;49.900;8.208;2023-03-11T09:03:50;2.30;;;1.50;;
18455;SDS011;9357;49.900;8.208;2023-03-11T09:05:23;4.17;;;1.53;;
18455;SDS011;9357;49.900;8.208;2023-03-11T09:06:56;5.43;;;1.50;;
18455;SDS011;9357;49.900;8.208;2023-03-11T09:08:29;2.93;;;1.33;;
18455;SDS011;9357;49.900;8.208;2023-03-11T09:10:02;5.60;;;1.40;;
18455;SDS011;9357;49.900;8.208;2023-03-11T09:11:36;5.13;;;1.60;;
18455;SDS011;9357;49.900;8.208;2023-03-11T09:13:10;4.23;;;1.43;;
18455;SDS011;9357;49.900;8.208;2023-03-11T09:14:43;3.37;;;1.47;;
18455;SDS011;9357;49.900;8.208;2023-03-11T09:16:16;5.80;;;1.63;;
18455;SDS011;9357;49.900;8.208;2023-03-11T09:17:50;2.63;;;1.47;;
18455;SDS011;9357;49.900;8.208;2023-03-11T09:19:24;3.43;;;1.40;;
18455;SDS011;9357;49.900;8.208;2023-03-11T09:20:57;3.60;;;1.40;;
18455;SDS011;9357;49.900;8.208;2023-03-11T09:22:31;5.20;;;1.43;;
18455;SDS011;9357;49.900;8.208;2023-03-11T09:24:04;4.50;;;1.30;;
18455;SDS011;9357;49.900;8.208;2023-03-11T09:25:38;2.93;;;1.43;;
18455;SDS011;9357;49.900;8.208;2023-03-11T09:27:12;3.83;;;1.40;;
18455;SDS011;9357;49.900;8.208;2023-03-11T09:28:45;4.27;;;1.50;;
18455;SDS011;9357;49.900;8.208;2023-03-11T09:30:19;4.20;;;1.37;;
18455;SDS011;9357;49.900;8.208;2023-03-11T09:31:52;3.63;;;1.40;;
18455;SDS011;9357;49.900;8.208;2023-03-11T09:33:25;5.27;;;1.50;;
18455;SDS011;9357;49.900;8.208;2023-03-11T09:34:58;4.17;;;1.67;;